Baroy — LCHG — position and weather

sailwx.info

Track history (hours):
 
Tides and Currents Weather Stations Pressure Air Temp Water Temp Dewpoint Dewpoint Depression Visibility Wind Speed Wind Dir Waves Ship Positions

Baroy

Last reported at 2018-Feb-20 04:00 UTC. Time now 2018-Feb-20 04:18 UTC.
Position N 68°25' E 015°60'.

Length 93 m; draft 4 m.

Type: Passenger vessel. MMSI: 257741000.

Date/timePositionNaut miles runAvg speedWind from/ knotsBaromVisibWave heightAir tempDewpointWater temp
2018-Feb-20 04:00N 68°25' E 015°60'0 0.0
2018-Feb-20 03:30N 68°25' E 015°60'0 0.0
2018-Feb-20 03:00N 68°25' E 015°60'0 0.0
2018-Feb-20 02:30N 68°25' E 015°60'0 0.0
2018-Feb-20 02:00N 68°25' E 015°60'0 0.0
2018-Feb-20 01:30N 68°25' E 015°60'0 0.0
2018-Feb-20 01:00N 68°25' E 015°60'0 0.0
2018-Feb-20 00:30N 68°25' E 015°60'0 0.0
2018-Feb-20 00:00N 68°25' E 015°60'2 3.9
2018-Feb-19 23:30N 68°23' E 016°01'612.8
2018-Feb-19 23:00N 68°17' E 016°03'3 6.7
2018-Feb-19 22:30N 68°14' E 016°05'612.6
2018-Feb-19 22:00N 68°20' E 016°01'510.8
2018-Feb-19 21:30N 68°25' E 015°60'2 4.3
2018-Feb-19 21:00N 68°23' E 016°01'713.7
2018-Feb-19 20:31N 68°16' E 016°03'3 5.7
2018-Feb-19 20:00N 68°14' E 016°04'612.1
2018-Feb-19 19:30N 68°19' E 016°01'611.6
2018-Feb-19 19:00N 68°25' E 015°60'2 3.1
2018-Feb-19 18:30N 68°24' E 016°01'612.8
2018-Feb-19 18:00N 68°17' E 016°02'4 8.1
2018-Feb-19 17:31N 68°13' E 016°04'3 5.3
2018-Feb-19 17:00N 68°16' E 016°04'713.6
2018-Feb-19 16:30N 68°23' E 016°01'2 4.8
2018-Feb-19 16:00N 68°25' E 015°60'0 0.5
2018-Feb-19 15:30N 68°25' E 016°00'611.9
2018-Feb-19 15:00N 68°19' E 016°01'611.7
2018-Feb-19 14:30N 68°13' E 016°04'1 1.1
2018-Feb-19 13:58N 68°14' E 016°05'612.5
2018-Feb-19 13:30N 68°20' E 016°01'5 9.9
2018-Feb-19 12:57N 68°25' E 015°60'0 0.0
2018-Feb-19 12:30N 68°25' E 015°60'0 0.0
2018-Feb-19 11:58N 68°25' E 015°60'3 6.5
2018-Feb-19 11:30N 68°22' E 016°01'612.7
2018-Feb-19 11:00N 68°16' E 016°04'2 4.2
2018-Feb-19 10:30N 68°14' E 016°05'612.9
2018-Feb-19 10:00N 68°20' E 016°01'510.5
2018-Feb-19 09:30N 68°25' E 015°60'3 6.6
2018-Feb-19 09:00N 68°22' E 016°01'713.5
2018-Feb-19 08:30N 68°15' E 016°05'2 3.8
2018-Feb-19 08:00N 68°14' E 016°04'612.0
2018-Feb-19 07:31N 68°19' E 016°01'6 9.8
2018-Feb-19 06:54N 68°25' E 015°60'2 5.8
2018-Feb-19 06:30N 68°23' E 016°01'612.4
2018-Feb-19 06:00N 68°17' E 016°03'3 6.8
2018-Feb-19 05:30N 68°14' E 016°04'611.6
2018-Feb-19 05:00N 68°19' E 016°01'612.2
2018-Feb-19 04:30N 68°25' E 015°60'0 0.0
2018-Feb-19 04:00N 68°25' E 015°60'0 0.0
2018-Feb-19 03:30N 68°25' E 015°60'0 0.0
2018-Feb-19 03:00N 68°25' E 015°60'0 0.0
2018-Feb-19 02:30N 68°25' E 015°60'0 0.0
2018-Feb-19 02:00N 68°25' E 015°60'0 0.0
2018-Feb-19 01:29N 68°25' E 015°60'0 0.0
2018-Feb-19 00:58N 68°25' E 015°60'0 0.0
2018-Feb-19 00:30N 68°25' E 015°60'0 0.0
2018-Feb-19 00:00N 68°25' E 015°60'2 3.9
2018-Feb-18 23:30N 68°23' E 016°01'713.5
2018-Feb-18 23:00N 68°17' E 016°03'3 6.2
2018-Feb-18 22:30N 68°14' E 016°05'713.5
2018-Feb-18 22:00N 68°20' E 016°01'510.2
2018-Feb-18 21:30N 68°25' E 015°60'2 4.8
2018-Feb-18 20:59N 68°23' E 016°01'713.6
2018-Feb-18 20:30N 68°16' E 016°03'3 5.6
2018-Feb-18 20:00N 68°14' E 016°04'612.4
2018-Feb-18 19:30N 68°20' E 016°00'611.4
2018-Feb-18 19:00N 68°25' E 015°60'1 2.6
2018-Feb-18 18:30N 68°24' E 016°01'713.7
2018-Feb-18 18:00N 68°17' E 016°02'4 7.7
2018-Feb-18 17:30N 68°13' E 016°04'3 6.1
2018-Feb-18 17:00N 68°16' E 016°03'713.6
2018-Feb-18 16:30N 68°23' E 016°01'2 4.3
2018-Feb-18 16:00N 68°25' E 015°60'0 0.5
2018-Feb-18 15:30N 68°25' E 016°00'611.9
2018-Feb-18 15:00N 68°19' E 016°01'611.7
2018-Feb-18 14:30N 68°13' E 016°04'0 0.1
2018-Feb-18 14:00N 68°14' E 016°04'611.9
2018-Feb-18 13:30N 68°19' E 016°01'611.5
2018-Feb-18 13:00N 68°25' E 015°60'0 0.0
2018-Feb-18 12:29N 68°25' E 015°60'0 0.0
2018-Feb-18 12:00N 68°25' E 015°60'3 5.9
2018-Feb-18 11:30N 68°22' E 016°01'612.8
2018-Feb-18 11:00N 68°16' E 016°04'2 5.0
2018-Feb-18 10:30N 68°14' E 016°04'612.1
2018-Feb-18 10:00N 68°20' E 016°00'611.3
2018-Feb-18 09:30N 68°25' E 015°60'3 5.2
2018-Feb-18 09:00N 68°23' E 016°01'612.8
2018-Feb-18 08:31N 68°16' E 016°03'3 5.7
2018-Feb-18 08:00N 68°14' E 016°04'612.2
2018-Feb-18 07:30N 68°19' E 016°01'611.6
2018-Feb-18 07:00N 68°25' E 015°60'0 0.0
2018-Feb-18 06:30N 68°25' E 015°60'0 0.0
2018-Feb-18 06:00N 68°25' E 015°60'0 0.0
2018-Feb-18 05:30N 68°25' E 015°60'0 0.0
2018-Feb-18 05:00N 68°25' E 015°60'0 0.0
2018-Feb-18 04:30N 68°25' E 015°60'0 0.0
2018-Feb-18 04:00N 68°25' E 015°60'0 0.0
2018-Feb-18 03:30N 68°25' E 015°60'0 0.0
2018-Feb-18 03:00N 68°25' E 015°60'0 0.0
2018-Feb-18 02:30N 68°25' E 015°60'0 0.0
2018-Feb-18 02:00N 68°25' E 015°60'0 0.0
2018-Feb-18 01:30N 68°25' E 015°60'0 0.0
2018-Feb-18 01:00N 68°25' E 015°60'0 0.0
2018-Feb-18 00:30N 68°25' E 015°60'0 0.0
2018-Feb-18 00:00N 68°25' E 015°60'0 0.0
2018-Feb-17 23:30N 68°25' E 015°60'0 0.0
2018-Feb-17 23:00N 68°25' E 015°60'0 0.0
2018-Feb-17 22:30N 68°25' E 015°60'0 0.0
2018-Feb-17 22:00N 68°25' E 015°60'0 0.0
2018-Feb-17 21:30N 68°25' E 015°60'1 2.3
2018-Feb-17 20:59N 68°24' E 016°01'715.3
2018-Feb-17 20:30N 68°17' E 016°03'3 6.6
2018-Feb-17 20:00N 68°14' E 016°04'612.2
2018-Feb-17 19:30N 68°19' E 016°01'611.5
2018-Feb-17 19:00N 68°25' E 015°60'2 3.6
2018-Feb-17 18:29N 68°23' E 016°01'612.7
2018-Feb-17 17:59N 68°17' E 016°03'4 7.5
2018-Feb-17 17:30N 68°13' E 016°04'3 5.7
2018-Feb-17 17:00N 68°16' E 016°04'713.4
2018-Feb-17 16:30N 68°23' E 016°01'2 4.6
2018-Feb-17 16:00N 68°25' E 015°60'0 0.3
2018-Feb-17 15:30N 68°25' E 016°00'612.0
2018-Feb-17 15:00N 68°19' E 016°01'611.8
2018-Feb-17 14:30N 68°13' E 016°04'0 0.4
2018-Feb-17 13:59N 68°14' E 016°05'612.6
2018-Feb-17 13:30N 68°20' E 016°01'511.0
2018-Feb-17 13:00N 68°25' E 015°60'0 0.0
2018-Feb-17 12:30N 68°25' E 015°60'0 0.0
2018-Feb-17 11:55N 68°25' E 015°60'3 6.1
2018-Feb-17 11:30N 68°23' E 016°01'713.0
2018-Feb-17 10:59N 68°16' E 016°04'3 5.5
2018-Feb-17 10:30N 68°13' E 016°04'611.0
2018-Feb-17 10:00N 68°19' E 016°01'612.9
2018-Feb-17 09:30N 68°25' E 015°60'2 4.8
2018-Feb-17 09:00N 68°23' E 016°01'713.7
2018-Feb-17 08:30N 68°16' E 016°04'2 4.9
2018-Feb-17 08:00N 68°14' E 016°04'612.4
2018-Feb-17 07:29N 68°20' E 016°01'511.1
2018-Feb-17 07:00N 68°25' E 015°60'0 0.0
2018-Feb-17 06:30N 68°25' E 015°60'0 0.0
2018-Feb-17 05:59N 68°25' E 015°60'0 0.0
2018-Feb-17 05:29N 68°25' E 015°60'0 0.0
2018-Feb-17 04:59N 68°25' E 015°60'0 0.0
2018-Feb-17 04:29N 68°25' E 015°60'0 0.0
2018-Feb-17 03:59N 68°25' E 015°60'0 0.0
2018-Feb-17 03:29N 68°25' E 015°60'0 0.0
2018-Feb-17 02:59N 68°25' E 015°60'0 0.0
2018-Feb-17 02:29N 68°25' E 015°60'0 0.0
2018-Feb-17 01:59N 68°25' E 015°60'0 0.0
2018-Feb-17 01:29N 68°25' E 015°60'0 0.0
2018-Feb-17 00:59N 68°25' E 015°60'0 0.0
2018-Feb-17 00:29N 68°25' E 015°60'0 0.0
2018-Feb-16 23:59N 68°25' E 015°60'0 0.3
2018-Feb-16 23:29N 68°25' E 016°00'714.8
2018-Feb-16 23:00N 68°18' E 016°01'5 9.5
2018-Feb-16 22:30N 68°13' E 016°04'611.6
2018-Feb-16 22:00N 68°19' E 016°01'612.4
2018-Feb-16 21:30N 68°25' E 015°60'3 5.1
2018-Feb-16 21:00N 68°23' E 016°01'713.3
2018-Feb-16 20:30N 68°16' E 016°04'3 5.0
2018-Feb-16 19:59N 68°14' E 016°04'612.5
2018-Feb-16 19:30N 68°19' E 016°01'611.8
2018-Feb-16 19:00N 68°25' E 015°60'2 3.3
2018-Feb-16 18:30N 68°24' E 016°01'612.7
2018-Feb-16 18:00N 68°17' E 016°03'4 7.7
2018-Feb-16 17:30N 68°13' E 016°04'3 6.5
2018-Feb-16 17:00N 68°17' E 016°03'712.9
2018-Feb-16 16:29N 68°23' E 016°01'2 4.1
2018-Feb-16 15:59N 68°25' E 015°60'0 0.0
2018-Feb-16 15:30N 68°25' E 015°60'511.0
2018-Feb-16 15:00N 68°20' E 016°01'613.0
2018-Feb-16 14:30N 68°13' E 016°04'1 1.7
2018-Feb-16 14:00N 68°14' E 016°05'713.8
2018-Feb-16 13:30N 68°21' E 016°01'4 8.7
2018-Feb-16 13:00N 68°25' E 015°60'0 0.0
2018-Feb-16 12:30N 68°25' E 015°60'0 0.0
2018-Feb-16 12:01N 68°25' E 015°60'3 5.5
2018-Feb-16 11:30N 68°22' E 016°02'713.6
2018-Feb-16 11:00N 68°16' E 016°04'2 4.3
2018-Feb-16 10:30N 68°14' E 016°05'712.5
2018-Feb-16 09:58N 68°20' E 016°01'510.5
2018-Feb-16 09:29N 68°25' E 015°60'2 4.7
2018-Feb-16 08:59N 68°23' E 016°01'713.7
2018-Feb-16 08:30N 68°16' E 016°04'3 5.5
2018-Feb-16 08:00N 68°14' E 016°05'612.5
2018-Feb-16 07:30N 68°20' E 016°01'611.1
2018-Feb-16 07:00N 68°25' E 015°60'2 3.4
2018-Feb-16 06:30N 68°24' E 016°02'713.9
2018-Feb-16 06:00N 68°17' E 016°03'3 6.1
2018-Feb-16 05:30N 68°14' E 016°05'712.3
2018-Feb-16 04:59N 68°20' E 016°00'510.9
2018-Feb-16 04:30N 68°25' E 015°60'0 0.0
2018-Feb-16 04:00N 68°25' E 015°60'0 0.0
2018-Feb-16 03:28N 68°25' E 015°60'0 0.0
2018-Feb-16 02:58N 68°25' E 015°60'0 0.0
2018-Feb-16 02:28N 68°25' E 015°60'0 0.0
2018-Feb-16 01:58N 68°25' E 015°60'0 0.0
2018-Feb-16 01:28N 68°25' E 015°60'0 0.0
2018-Feb-16 00:58N 68°25' E 015°60'0 0.0
2018-Feb-16 00:28N 68°25' E 015°60'0 0.0
2018-Feb-15 23:58N 68°25' E 015°60'1 1.4
2018-Feb-15 23:30N 68°25' E 016°01'815.2
2018-Feb-15 23:00N 68°17' E 016°02'4 7.6
2018-Feb-15 22:30N 68°14' E 016°04'612.0
2018-Feb-15 22:00N 68°19' E 016°01'611.7
2018-Feb-15 21:30N 68°25' E 015°60'2 4.1
2018-Feb-15 21:00N 68°23' E 016°01'713.8
2018-Feb-15 20:30N 68°16' E 016°03'3 5.8
2018-Feb-15 20:00N 68°14' E 016°04'611.9
2018-Feb-15 19:29N 68°19' E 016°01'612.0
2018-Feb-15 19:00N 68°25' E 015°60'1 2.8
2018-Feb-15 18:30N 68°24' E 016°01'713.4
2018-Feb-15 18:00N 68°17' E 016°03'4 7.8
2018-Feb-15 17:30N 68°13' E 016°04'3 5.4
2018-Feb-15 17:00N 68°16' E 016°04'713.4
2018-Feb-15 16:30N 68°23' E 016°01'3 5.0
2018-Feb-15 15:59N 68°25' E 015°60'0 0.0
2018-Feb-15 15:30N 68°25' E 015°60'510.4
2018-Feb-15 15:00N 68°20' E 016°01'713.5
2018-Feb-15 14:30N 68°13' E 016°04'0 0.9
2018-Feb-15 14:00N 68°14' E 016°05'612.6
2018-Feb-15 13:30N 68°20' E 016°01'510.8
2018-Feb-15 13:00N 68°25' E 015°60'0 0.0
2018-Feb-15 12:30N 68°25' E 015°60'0 0.0
2018-Feb-15 12:00N 68°25' E 015°60'2 3.9
2018-Feb-15 11:30N 68°23' E 016°01'714.0
2018-Feb-15 11:00N 68°16' E 016°03'3 5.6
2018-Feb-15 10:30N 68°14' E 016°05'712.8
2018-Feb-15 09:58N 68°20' E 016°00'511.0
2018-Feb-15 09:30N 68°25' E 015°60'2 4.0
2018-Feb-15 09:00N 68°23' E 016°01'713.7
2018-Feb-15 08:30N 68°17' E 016°03'3 6.0
2018-Feb-15 08:00N 68°14' E 016°04'612.2
2018-Feb-15 07:30N 68°19' E 016°00'611.3
2018-Feb-15 07:00N 68°25' E 015°60'2 3.8
2018-Feb-15 06:30N 68°23' E 016°01'713.5
2018-Feb-15 06:00N 68°17' E 016°03'3 6.4
2018-Feb-15 05:30N 68°14' E 016°05'612.7
2018-Feb-15 05:00N 68°20' E 016°01'511.1
2018-Feb-15 04:30N 68°25' E 015°60'0 0.0
2018-Feb-15 04:00N 68°25' E 015°60'0 0.0
2018-Feb-15 03:29N 68°25' E 015°60'0 0.0
2018-Feb-15 02:59N 68°25' E 015°60'0 0.0
2018-Feb-15 02:29N 68°25' E 015°60'0 0.0
2018-Feb-15 01:59N 68°25' E 015°60'0 0.0
2018-Feb-15 01:29N 68°25' E 015°60'0 0.0
2018-Feb-15 00:59N 68°25' E 015°60'0 0.0
2018-Feb-15 00:26N 68°25' E 015°60'0 0.0
2018-Feb-14 23:59N 68°25' E 015°60'2 4.4
2018-Feb-14 23:30N 68°23' E 016°01'713.4
2018-Feb-14 22:59N 68°16' E 016°04'3 5.7
2018-Feb-14 22:30N 68°14' E 016°04'612.4
2018-Feb-14 22:01N 68°20' E 016°01'6 8.8
2018-Feb-14 21:22N 68°25' E 015°60'3 7.1
2018-Feb-14 21:00N 68°23' E 016°01'713.4
2018-Feb-14 20:30N 68°16' E 016°04'2 5.0
2018-Feb-14 20:00N 68°14' E 016°05'612.8
2018-Feb-14 19:30N 68°20' E 016°00'510.8
2018-Feb-14 19:00N 68°25' E 015°60'1 2.4
2018-Feb-14 18:30N 68°24' E 016°02'713.9
2018-Feb-14 18:00N 68°17' E 016°03'4 7.9
2018-Feb-14 17:30N 68°13' E 016°04'3 6.2
2018-Feb-14 17:00N 68°17' E 016°03'713.6
2018-Feb-14 16:30N 68°23' E 016°01'2 4.0
2018-Feb-14 15:59N 68°25' E 015°60'0 0.1
2018-Feb-14 15:29N 68°25' E 015°60'611.7
2018-Feb-14 15:00N 68°20' E 016°01'612.7
2018-Feb-14 14:30N 68°13' E 016°04'1 1.3
2018-Feb-14 14:00N 68°14' E 016°05'713.7
2018-Feb-14 13:30N 68°21' E 016°01'5 9.2
2018-Feb-14 13:00N 68°25' E 015°60'0 0.0
2018-Feb-14 12:30N 68°25' E 015°60'0 0.0
2018-Feb-14 12:00N 68°25' E 015°60'2 4.5
2018-Feb-14 11:28N 68°23' E 016°01'713.8
2018-Feb-14 11:00N 68°16' E 016°03'3 5.8
2018-Feb-14 10:30N 68°14' E 016°04'612.2
2018-Feb-14 10:00N 68°20' E 016°00'611.2
2018-Feb-14 09:29N 68°25' E 015°60'2 5.0
2018-Feb-14 09:00N 68°23' E 016°01'713.5
2018-Feb-14 08:30N 68°16' E 016°04'3 5.3
2018-Feb-14 08:00N 68°14' E 016°04'612.4
2018-Feb-14 07:29N 68°20' E 016°01'511.3
2018-Feb-14 07:01N 68°25' E 015°60'2 4.5
2018-Feb-14 06:30N 68°23' E 016°01'713.7
2018-Feb-14 06:00N 68°16' E 016°04'2 3.2
2018-Feb-14 05:29N 68°15' E 016°05'612.3
2018-Feb-14 05:00N 68°20' E 016°00'5 9.9
2018-Feb-14 04:30N 68°25' E 015°60'0 0.0
2018-Feb-14 03:59N 68°25' E 015°60'0 0.0
2018-Feb-14 03:28N 68°25' E 015°60'0 0.0
2018-Feb-14 02:58N 68°25' E 015°60'0 0.0
2018-Feb-14 02:28N 68°25' E 015°60'0 0.0
2018-Feb-14 01:58N 68°25' E 015°60'0 0.0
2018-Feb-14 01:28N 68°25' E 015°60'0 0.0
2018-Feb-14 00:58N 68°25' E 015°60'0 0.0
2018-Feb-14 00:28N 68°25' E 015°60'0 0.0
2018-Feb-13 23:57N 68°25' E 015°60'3 6.6
2018-Feb-13 23:30N 68°22' E 016°01'713.5
2018-Feb-13 23:00N 68°16' E 016°05'2 3.4
2018-Feb-13 22:30N 68°14' E 016°05'613.0
2018-Feb-13 22:00N 68°20' E 015°60'510.0
2018-Feb-13 21:29N 68°25' E 015°60'3 5.5
2018-Feb-13 21:00N 68°23' E 016°01'713.7
2018-Feb-13 20:30N 68°16' E 016°04'2 3.8
2018-Feb-13 20:00N 68°14' E 016°05'712.9
2018-Feb-13 19:29N 68°20' E 015°60'5 9.6
2018-Feb-13 18:59N 68°25' E 015°60'1 2.6
2018-Feb-13 18:30N 68°24' E 016°01'713.7
2018-Feb-13 18:00N 68°17' E 016°02'4 8.0
2018-Feb-13 17:30N 68°13' E 016°04'3 6.1
2018-Feb-13 17:00N 68°17' E 016°03'713.2
2018-Feb-13 16:30N 68°23' E 016°01'2 4.4
2018-Feb-13 16:00N 68°25' E 015°60'0 0.0
2018-Feb-13 15:29N 68°25' E 015°60'510.4
2018-Feb-13 15:00N 68°20' E 016°01'713.5
2018-Feb-13 14:30N 68°13' E 016°04'0 0.6
2018-Feb-13 14:00N 68°14' E 016°05'612.8
2018-Feb-13 13:30N 68°20' E 016°00'510.8
2018-Feb-13 13:00N 68°25' E 015°60'0 0.0
2018-Feb-13 12:30N 68°25' E 015°60'0 0.0
2018-Feb-13 11:59N 68°25' E 015°60'2 4.1
2018-Feb-13 11:30N 68°23' E 016°01'714.1
2018-Feb-13 11:00N 68°16' E 016°04'3 5.7
2018-Feb-13 10:30N 68°14' E 016°05'612.6
2018-Feb-13 09:59N 68°20' E 016°00'510.6
2018-Feb-13 09:29N 68°25' E 015°60'2 4.7
2018-Feb-13 09:00N 68°23' E 016°01'714.2
2018-Feb-13 08:30N 68°16' E 016°04'2 3.9
2018-Feb-13 07:59N 68°14' E 016°05'612.5
2018-Feb-13 07:30N 68°20' E 016°01'510.3
2018-Feb-13 06:59N 68°25' E 015°60'1 2.4
2018-Feb-13 06:30N 68°24' E 016°02'714.5
2018-Feb-13 06:00N 68°17' E 016°03'4 7.0
2018-Feb-13 05:30N 68°14' E 016°05'613.0
2018-Feb-13 05:00N 68°20' E 016°01'5 9.8
2018-Feb-13 04:28N 68°25' E 015°60'0 0.0
2018-Feb-13 04:00N 68°25' E 015°60'0 0.0
2018-Feb-13 03:29N 68°25' E 015°60'0 0.0
2018-Feb-13 02:59N 68°25' E 015°60'0 0.0
2018-Feb-13 02:29N 68°25' E 015°60'0 0.0
2018-Feb-13 01:59N 68°25' E 015°60'0 0.0
2018-Feb-13 01:29N 68°25' E 015°60'0 0.0
2018-Feb-13 00:59N 68°25' E 015°60'0 0.0
2018-Feb-13 00:29N 68°25' E 015°60'0 0.0
2018-Feb-12 23:59N 68°25' E 015°60'0 0.5
2018-Feb-12 23:30N 68°25' E 016°00'714.5
2018-Feb-12 23:00N 68°18' E 016°02'4 8.9
2018-Feb-12 22:30N 68°14' E 016°05'612.3
2018-Feb-12 22:00N 68°20' E 016°01'611.4
2018-Feb-12 21:30N 68°25' E 015°60'2 4.3
2018-Feb-12 21:00N 68°23' E 016°01'714.1
2018-Feb-12 20:30N 68°16' E 016°04'3 5.2
2018-Feb-12 20:00N 68°14' E 016°04'612.5
2018-Feb-12 19:30N 68°20' E 016°00'610.0
2018-Feb-12 18:57N 68°25' E 015°60'1 2.9
2018-Feb-12 18:30N 68°24' E 016°01'713.3
2018-Feb-12 17:59N 68°17' E 016°03'4 7.9
2018-Feb-12 17:29N 68°13' E 016°04'3 6.0
2018-Feb-12 16:59N 68°16' E 016°03'713.3
2018-Feb-12 16:30N 68°23' E 016°01'2 4.6
2018-Feb-12 16:00N 68°25' E 015°60'0 0.0
2018-Feb-12 15:30N 68°25' E 015°60'611.2
2018-Feb-12 14:59N 68°19' E 016°01'612.8
2018-Feb-12 14:30N 68°13' E 016°04'1 1.0
2018-Feb-12 14:00N 68°14' E 016°05'612.8
2018-Feb-12 13:30N 68°20' E 016°01'510.3
2018-Feb-12 13:00N 68°25' E 015°60'0 0.0
2018-Feb-12 12:29N 68°25' E 015°60'0 0.0
2018-Feb-12 12:00N 68°25' E 015°60'3 5.5
2018-Feb-12 11:30N 68°23' E 016°01'713.6
2018-Feb-12 11:00N 68°16' E 016°04'2 4.2
2018-Feb-12 10:30N 68°14' E 016°05'612.6
2018-Feb-12 10:00N 68°20' E 016°00'510.5
2018-Feb-12 09:29N 68°25' E 015°60'2 4.6
2018-Feb-12 09:00N 68°23' E 016°01'713.6
2018-Feb-12 08:28N 68°16' E 016°04'2 4.4
2018-Feb-12 07:59N 68°14' E 016°05'612.8
2018-Feb-12 07:30N 68°20' E 016°00'510.5
2018-Feb-12 07:00N 68°25' E 015°60'2 4.8
2018-Feb-12 06:30N 68°23' E 016°01'713.6
2018-Feb-12 06:00N 68°16' E 016°04'2 4.7
2018-Feb-12 05:28N 68°14' E 016°05'612.9
2018-Feb-12 05:00N 68°20' E 016°00'510.9
2018-Feb-12 04:30N 68°25' E 015°60'0 0.0
2018-Feb-12 03:58N 68°25' E 015°60'0 0.0
2018-Feb-12 03:28N 68°25' E 015°60'0 0.0
2018-Feb-12 02:58N 68°25' E 015°60'0 0.0
2018-Feb-12 02:28N 68°25' E 015°60'0 0.0
2018-Feb-12 01:58N 68°25' E 015°60'0 0.0
2018-Feb-12 01:28N 68°25' E 015°60'0 0.0
2018-Feb-12 00:58N 68°25' E 015°60'0 0.0
2018-Feb-12 00:28N 68°25' E 015°60'0 0.0
2018-Feb-11 23:58N 68°25' E 015°60'1 3.0
2018-Feb-11 23:30N 68°24' E 016°01'714.0
2018-Feb-11 23:00N 68°17' E 016°03'4 7.0
2018-Feb-11 22:30N 68°14' E 016°05'612.8
2018-Feb-11 22:00N 68°20' E 016°00'510.3
2018-Feb-11 21:29N 68°25' E 015°60'3 7.2
2018-Feb-11 21:00N 68°22' E 016°01'714.1
2018-Feb-11 20:30N 68°15' E 016°05'2 3.1
2018-Feb-11 20:00N 68°14' E 016°04'612.3
2018-Feb-11 19:30N 68°20' E 016°01'611.5
2018-Feb-11 19:01N 68°25' E 015°60'1 1.6
2018-Feb-11 18:30N 68°25' E 016°01'714.2
2018-Feb-11 18:00N 68°18' E 016°02'4 8.5
2018-Feb-11 17:30N 68°13' E 016°04'3 6.5
2018-Feb-11 17:00N 68°17' E 016°03'713.2
2018-Feb-11 16:30N 68°23' E 016°01'2 3.5
2018-Feb-11 15:56N 68°25' E 015°60'0 0.1
2018-Feb-11 15:30N 68°25' E 015°60'611.5
2018-Feb-11 15:00N 68°20' E 016°01'612.1
2018-Feb-11 14:29N 68°13' E 016°04'1 1.3
2018-Feb-11 14:00N 68°14' E 016°05'713.1
2018-Feb-11 13:30N 68°20' E 015°59'510.4
2018-Feb-11 13:00N 68°25' E 015°60'0 0.0
2018-Feb-11 12:30N 68°25' E 015°60'0 0.0
2018-Feb-11 11:59N 68°25' E 015°60'2 4.6
2018-Feb-11 11:30N 68°23' E 016°01'714.0
2018-Feb-11 11:00N 68°16' E 016°04'2 4.6
2018-Feb-11 10:30N 68°14' E 016°05'712.8
2018-Feb-11 10:00N 68°20' E 016°00'5 8.1
2018-Feb-11 09:23N 68°25' E 015°60'2 6.4
2018-Feb-11 09:00N 68°23' E 016°02'713.8
2018-Feb-11 08:30N 68°16' E 016°04'2 4.7
2018-Feb-11 08:00N 68°14' E 016°05'612.8
2018-Feb-11 07:30N 68°20' E 015°60'510.7
2018-Feb-11 07:00N 68°25' E 015°60'0 0.0
2018-Feb-11 06:30N 68°25' E 015°60'0 0.0
2018-Feb-11 06:00N 68°25' E 015°60'0 0.0
2018-Feb-11 05:30N 68°25' E 015°60'0 0.0
2018-Feb-11 05:00N 68°25' E 015°60'0 0.0
2018-Feb-11 04:30N 68°25' E 015°60'0 0.0
2018-Feb-11 04:00N 68°25' E 015°60'0 0.0
2018-Feb-11 03:30N 68°25' E 015°60'0 0.0
2018-Feb-11 03:00N 68°25' E 015°60'0 0.0
2018-Feb-11 02:30N 68°25' E 015°60'0 0.0
2018-Feb-11 02:00N 68°25' E 015°60'0 0.0
2018-Feb-11 01:30N 68°25' E 015°60'0 0.0
2018-Feb-11 01:00N 68°25' E 015°60'0 0.0
2018-Feb-11 00:30N 68°25' E 015°60'0 0.0
2018-Feb-11 00:00N 68°25' E 015°60'0 0.0
2018-Feb-10 23:30N 68°25' E 015°60'0 0.0
2018-Feb-10 23:00N 68°25' E 015°60'0 0.0
2018-Feb-10 22:30N 68°25' E 015°60'0 0.0
2018-Feb-10 22:00N 68°25' E 015°60'0 0.0
2018-Feb-10 21:30N 68°25' E 015°60'2 4.8
2018-Feb-10 21:00N 68°23' E 016°01'713.7
2018-Feb-10 20:29N 68°16' E 016°05'2 4.5
2018-Feb-10 20:00N 68°14' E 016°04'612.4
2018-Feb-10 19:30N 68°20' E 016°00'611.2
2018-Feb-10 19:00N 68°25' E 015°60'1 2.0
2018-Feb-10 18:30N 68°24' E 016°02'714.2
2018-Feb-10 18:00N 68°17' E 016°02'4 7.9
2018-Feb-10 17:30N 68°13' E 016°04'3 6.0
2018-Feb-10 17:00N 68°16' E 016°03'713.5
2018-Feb-10 16:30N 68°23' E 016°01'2 4.0
2018-Feb-10 15:57N 68°25' E 015°60'0 0.0
2018-Feb-10 15:29N 68°25' E 015°60'611.7
2018-Feb-10 15:00N 68°19' E 016°01'612.2
2018-Feb-10 14:30N 68°13' E 016°04'0 0.7
2018-Feb-10 14:00N 68°14' E 016°05'612.8
2018-Feb-10 13:30N 68°20' E 016°01'510.1
2018-Feb-10 12:59N 68°25' E 015°60'0 0.0
2018-Feb-10 12:29N 68°25' E 015°60'2 4.4
2018-Feb-10 11:58N 68°23' E 016°01'614.0
2018-Feb-10 11:30N 68°17' E 016°03'3 6.0
2018-Feb-10 11:00N 68°14' E 016°04'612.1
2018-Feb-10 10:30N 68°19' E 016°01'611.3
2018-Feb-10 10:00N 68°25' E 015°60'2 3.2
2018-Feb-10 09:30N 68°24' E 016°01'714.8
2018-Feb-10 09:00N 68°16' E 016°04'3 6.0
2018-Feb-10 08:30N 68°13' E 016°04'1 1.1
2018-Feb-10 08:00N 68°14' E 016°05'612.9
2018-Feb-10 07:30N 68°20' E 016°00'510.2
2018-Feb-10 07:00N 68°25' E 015°60'0 0.0
2018-Feb-10 06:30N 68°25' E 015°60'0 0.0
2018-Feb-10 06:00N 68°25' E 015°60'0 0.0
2018-Feb-10 05:30N 68°25' E 015°60'0 0.0
2018-Feb-10 05:00N 68°25' E 015°60'0 0.0
2018-Feb-10 04:30N 68°25' E 015°60'0 0.0
2018-Feb-10 04:00N 68°25' E 015°60'  
Track history (hours):
 
Tides and Currents Weather Stations Pressure Air Temp Water Temp Dewpoint Dewpoint Depression Visibility Wind Speed Wind Dir Waves Ship Positions

Baroy

Last reported at 2018-Feb-20 04:00 UTC. Time now 2018-Feb-20 04:18 UTC.
Position N 68°25' E 015°60'.

Length 93 m; draft 4 m.

Type: Passenger vessel. MMSI: 257741000.

Date/timePositionNaut miles runAvg speedWind from/ knotsBaromVisibWave heightAir tempDewpointWater temp
2018-Feb-20 04:00N 68°25' E 015°60'0 0.0
2018-Feb-20 03:30N 68°25' E 015°60'0 0.0
2018-Feb-20 03:00N 68°25' E 015°60'0 0.0
2018-Feb-20 02:30N 68°25' E 015°60'0 0.0
2018-Feb-20 02:00N 68°25' E 015°60'0 0.0
2018-Feb-20 01:30N 68°25' E 015°60'0 0.0
2018-Feb-20 01:00N 68°25' E 015°60'0 0.0
2018-Feb-20 00:30N 68°25' E 015°60'0 0.0
2018-Feb-20 00:00N 68°25' E 015°60'2 3.9
2018-Feb-19 23:30N 68°23' E 016°01'612.8
2018-Feb-19 23:00N 68°17' E 016°03'3 6.7
2018-Feb-19 22:30N 68°14' E 016°05'612.6
2018-Feb-19 22:00N 68°20' E 016°01'510.8
2018-Feb-19 21:30N 68°25' E 015°60'2 4.3
2018-Feb-19 21:00N 68°23' E 016°01'713.7
2018-Feb-19 20:31N 68°16' E 016°03'3 5.7
2018-Feb-19 20:00N 68°14' E 016°04'612.1
2018-Feb-19 19:30N 68°19' E 016°01'611.6
2018-Feb-19 19:00N 68°25' E 015°60'2 3.1
2018-Feb-19 18:30N 68°24' E 016°01'612.8
2018-Feb-19 18:00N 68°17' E 016°02'4 8.1
2018-Feb-19 17:31N 68°13' E 016°04'3 5.3
2018-Feb-19 17:00N 68°16' E 016°04'713.6
2018-Feb-19 16:30N 68°23' E 016°01'2 4.8
2018-Feb-19 16:00N 68°25' E 015°60'0 0.5
2018-Feb-19 15:30N 68°25' E 016°00'611.9
2018-Feb-19 15:00N 68°19' E 016°01'611.7
2018-Feb-19 14:30N 68°13' E 016°04'1 1.1
2018-Feb-19 13:58N 68°14' E 016°05'612.5
2018-Feb-19 13:30N 68°20' E 016°01'5 9.9
2018-Feb-19 12:57N 68°25' E 015°60'0 0.0
2018-Feb-19 12:30N 68°25' E 015°60'0 0.0
2018-Feb-19 11:58N 68°25' E 015°60'3 6.5
2018-Feb-19 11:30N 68°22' E 016°01'612.7
2018-Feb-19 11:00N 68°16' E 016°04'2 4.2
2018-Feb-19 10:30N 68°14' E 016°05'612.9
2018-Feb-19 10:00N 68°20' E 016°01'510.5
2018-Feb-19 09:30N 68°25' E 015°60'3 6.6
2018-Feb-19 09:00N 68°22' E 016°01'713.5
2018-Feb-19 08:30N 68°15' E 016°05'2 3.8
2018-Feb-19 08:00N 68°14' E 016°04'612.0
2018-Feb-19 07:31N 68°19' E 016°01'6 9.8
2018-Feb-19 06:54N 68°25' E 015°60'2 5.8
2018-Feb-19 06:30N 68°23' E 016°01'612.4
2018-Feb-19 06:00N 68°17' E 016°03'3 6.8
2018-Feb-19 05:30N 68°14' E 016°04'611.6
2018-Feb-19 05:00N 68°19' E 016°01'612.2
2018-Feb-19 04:30N 68°25' E 015°60'0 0.0
2018-Feb-19 04:00N 68°25' E 015°60'0 0.0
2018-Feb-19 03:30N 68°25' E 015°60'0 0.0
2018-Feb-19 03:00N 68°25' E 015°60'0 0.0
2018-Feb-19 02:30N 68°25' E 015°60'0 0.0
2018-Feb-19 02:00N 68°25' E 015°60'0 0.0
2018-Feb-19 01:29N 68°25' E 015°60'0 0.0
2018-Feb-19 00:58N 68°25' E 015°60'0 0.0
2018-Feb-19 00:30N 68°25' E 015°60'0 0.0
2018-Feb-19 00:00N 68°25' E 015°60'2 3.9
2018-Feb-18 23:30N 68°23' E 016°01'713.5
2018-Feb-18 23:00N 68°17' E 016°03'3 6.2
2018-Feb-18 22:30N 68°14' E 016°05'713.5
2018-Feb-18 22:00N 68°20' E 016°01'510.2
2018-Feb-18 21:30N 68°25' E 015°60'2 4.8
2018-Feb-18 20:59N 68°23' E 016°01'713.6
2018-Feb-18 20:30N 68°16' E 016°03'3 5.6
2018-Feb-18 20:00N 68°14' E 016°04'612.4
2018-Feb-18 19:30N 68°20' E 016°00'611.4
2018-Feb-18 19:00N 68°25' E 015°60'1 2.6
2018-Feb-18 18:30N 68°24' E 016°01'713.7
2018-Feb-18 18:00N 68°17' E 016°02'4 7.7
2018-Feb-18 17:30N 68°13' E 016°04'3 6.1
2018-Feb-18 17:00N 68°16' E 016°03'713.6
2018-Feb-18 16:30N 68°23' E 016°01'2 4.3
2018-Feb-18 16:00N 68°25' E 015°60'0 0.5
2018-Feb-18 15:30N 68°25' E 016°00'611.9
2018-Feb-18 15:00N 68°19' E 016°01'611.7
2018-Feb-18 14:30N 68°13' E 016°04'0 0.1
2018-Feb-18 14:00N 68°14' E 016°04'611.9
2018-Feb-18 13:30N 68°19' E 016°01'611.5
2018-Feb-18 13:00N 68°25' E 015°60'0 0.0
2018-Feb-18 12:29N 68°25' E 015°60'0 0.0
2018-Feb-18 12:00N 68°25' E 015°60'3 5.9
2018-Feb-18 11:30N 68°22' E 016°01'612.8
2018-Feb-18 11:00N 68°16' E 016°04'2 5.0
2018-Feb-18 10:30N 68°14' E 016°04'612.1
2018-Feb-18 10:00N 68°20' E 016°00'611.3
2018-Feb-18 09:30N 68°25' E 015°60'3 5.2
2018-Feb-18 09:00N 68°23' E 016°01'612.8
2018-Feb-18 08:31N 68°16' E 016°03'3 5.7
2018-Feb-18 08:00N 68°14' E 016°04'612.2
2018-Feb-18 07:30N 68°19' E 016°01'611.6
2018-Feb-18 07:00N 68°25' E 015°60'0 0.0
2018-Feb-18 06:30N 68°25' E 015°60'0 0.0
2018-Feb-18 06:00N 68°25' E 015°60'0 0.0
2018-Feb-18 05:30N 68°25' E 015°60'0 0.0
2018-Feb-18 05:00N 68°25' E 015°60'0 0.0
2018-Feb-18 04:30N 68°25' E 015°60'0 0.0
2018-Feb-18 04:00N 68°25' E 015°60'0 0.0
2018-Feb-18 03:30N 68°25' E 015°60'0 0.0
2018-Feb-18 03:00N 68°25' E 015°60'0 0.0
2018-Feb-18 02:30N 68°25' E 015°60'0 0.0
2018-Feb-18 02:00N 68°25' E 015°60'0 0.0
2018-Feb-18 01:30N 68°25' E 015°60'0 0.0
2018-Feb-18 01:00N 68°25' E 015°60'0 0.0
2018-Feb-18 00:30N 68°25' E 015°60'0 0.0
2018-Feb-18 00:00N 68°25' E 015°60'0 0.0
2018-Feb-17 23:30N 68°25' E 015°60'0 0.0
2018-Feb-17 23:00N 68°25' E 015°60'0 0.0
2018-Feb-17 22:30N 68°25' E 015°60'0 0.0
2018-Feb-17 22:00N 68°25' E 015°60'0 0.0
2018-Feb-17 21:30N 68°25' E 015°60'1 2.3
2018-Feb-17 20:59N 68°24' E 016°01'715.3
2018-Feb-17 20:30N 68°17' E 016°03'3 6.6
2018-Feb-17 20:00N 68°14' E 016°04'612.2
2018-Feb-17 19:30N 68°19' E 016°01'611.5
2018-Feb-17 19:00N 68°25' E 015°60'2 3.6
2018-Feb-17 18:29N 68°23' E 016°01'612.7
2018-Feb-17 17:59N 68°17' E 016°03'4 7.5
2018-Feb-17 17:30N 68°13' E 016°04'3 5.7
2018-Feb-17 17:00N 68°16' E 016°04'713.4
2018-Feb-17 16:30N 68°23' E 016°01'2 4.6
2018-Feb-17 16:00N 68°25' E 015°60'0 0.3
2018-Feb-17 15:30N 68°25' E 016°00'612.0
2018-Feb-17 15:00N 68°19' E 016°01'611.8
2018-Feb-17 14:30N 68°13' E 016°04'0 0.4
2018-Feb-17 13:59N 68°14' E 016°05'612.6
2018-Feb-17 13:30N 68°20' E 016°01'511.0
2018-Feb-17 13:00N 68°25' E 015°60'0 0.0
2018-Feb-17 12:30N 68°25' E 015°60'0 0.0
2018-Feb-17 11:55N 68°25' E 015°60'3 6.1
2018-Feb-17 11:30N 68°23' E 016°01'713.0
2018-Feb-17 10:59N 68°16' E 016°04'3 5.5
2018-Feb-17 10:30N 68°13' E 016°04'611.0
2018-Feb-17 10:00N 68°19' E 016°01'612.9
2018-Feb-17 09:30N 68°25' E 015°60'2 4.8
2018-Feb-17 09:00N 68°23' E 016°01'713.7
2018-Feb-17 08:30N 68°16' E 016°04'2 4.9
2018-Feb-17 08:00N 68°14' E 016°04'612.4
2018-Feb-17 07:29N 68°20' E 016°01'511.1
2018-Feb-17 07:00N 68°25' E 015°60'0 0.0
2018-Feb-17 06:30N 68°25' E 015°60'0 0.0
2018-Feb-17 05:59N 68°25' E 015°60'0 0.0
2018-Feb-17 05:29N 68°25' E 015°60'0 0.0
2018-Feb-17 04:59N 68°25' E 015°60'0 0.0
2018-Feb-17 04:29N 68°25' E 015°60'0 0.0
2018-Feb-17 03:59N 68°25' E 015°60'0 0.0
2018-Feb-17 03:29N 68°25' E 015°60'0 0.0
2018-Feb-17 02:59N 68°25' E 015°60'0 0.0
2018-Feb-17 02:29N 68°25' E 015°60'0 0.0
2018-Feb-17 01:59N 68°25' E 015°60'0 0.0
2018-Feb-17 01:29N 68°25' E 015°60'0 0.0
2018-Feb-17 00:59N 68°25' E 015°60'0 0.0
2018-Feb-17 00:29N 68°25' E 015°60'0 0.0
2018-Feb-16 23:59N 68°25' E 015°60'0 0.3
2018-Feb-16 23:29N 68°25' E 016°00'714.8
2018-Feb-16 23:00N 68°18' E 016°01'5 9.5
2018-Feb-16 22:30N 68°13' E 016°04'611.6
2018-Feb-16 22:00N 68°19' E 016°01'612.4
2018-Feb-16 21:30N 68°25' E 015°60'3 5.1
2018-Feb-16 21:00N 68°23' E 016°01'713.3
2018-Feb-16 20:30N 68°16' E 016°04'3 5.0
2018-Feb-16 19:59N 68°14' E 016°04'612.5
2018-Feb-16 19:30N 68°19' E 016°01'611.8
2018-Feb-16 19:00N 68°25' E 015°60'2 3.3
2018-Feb-16 18:30N 68°24' E 016°01'612.7
2018-Feb-16 18:00N 68°17' E 016°03'4 7.7
2018-Feb-16 17:30N 68°13' E 016°04'3 6.5
2018-Feb-16 17:00N 68°17' E 016°03'712.9
2018-Feb-16 16:29N 68°23' E 016°01'2 4.1
2018-Feb-16 15:59N 68°25' E 015°60'0 0.0
2018-Feb-16 15:30N 68°25' E 015°60'511.0
2018-Feb-16 15:00N 68°20' E 016°01'613.0
2018-Feb-16 14:30N 68°13' E 016°04'1 1.7
2018-Feb-16 14:00N 68°14' E 016°05'713.8
2018-Feb-16 13:30N 68°21' E 016°01'4 8.7
2018-Feb-16 13:00N 68°25' E 015°60'0 0.0
2018-Feb-16 12:30N 68°25' E 015°60'0 0.0
2018-Feb-16 12:01N 68°25' E 015°60'3 5.5
2018-Feb-16 11:30N 68°22' E 016°02'713.6
2018-Feb-16 11:00N 68°16' E 016°04'2 4.3
2018-Feb-16 10:30N 68°14' E 016°05'712.5
2018-Feb-16 09:58N 68°20' E 016°01'510.5
2018-Feb-16 09:29N 68°25' E 015°60'2 4.7
2018-Feb-16 08:59N 68°23' E 016°01'713.7
2018-Feb-16 08:30N 68°16' E 016°04'3 5.5
2018-Feb-16 08:00N 68°14' E 016°05'612.5
2018-Feb-16 07:30N 68°20' E 016°01'611.1
2018-Feb-16 07:00N 68°25' E 015°60'2 3.4
2018-Feb-16 06:30N 68°24' E 016°02'713.9
2018-Feb-16 06:00N 68°17' E 016°03'3 6.1
2018-Feb-16 05:30N 68°14' E 016°05'712.3
2018-Feb-16 04:59N 68°20' E 016°00'510.9
2018-Feb-16 04:30N 68°25' E 015°60'0 0.0
2018-Feb-16 04:00N 68°25' E 015°60'0 0.0
2018-Feb-16 03:28N 68°25' E 015°60'0 0.0
2018-Feb-16 02:58N 68°25' E 015°60'0 0.0
2018-Feb-16 02:28N 68°25' E 015°60'0 0.0
2018-Feb-16 01:58N 68°25' E 015°60'0 0.0
2018-Feb-16 01:28N 68°25' E 015°60'0 0.0
2018-Feb-16 00:58N 68°25' E 015°60'0 0.0
2018-Feb-16 00:28N 68°25' E 015°60'0 0.0
2018-Feb-15 23:58N 68°25' E 015°60'1 1.4
2018-Feb-15 23:30N 68°25' E 016°01'815.2
2018-Feb-15 23:00N 68°17' E 016°02'4 7.6
2018-Feb-15 22:30N 68°14' E 016°04'612.0
2018-Feb-15 22:00N 68°19' E 016°01'611.7
2018-Feb-15 21:30N 68°25' E 015°60'2 4.1
2018-Feb-15 21:00N 68°23' E 016°01'713.8
2018-Feb-15 20:30N 68°16' E 016°03'3 5.8
2018-Feb-15 20:00N 68°14' E 016°04'611.9
2018-Feb-15 19:29N 68°19' E 016°01'612.0
2018-Feb-15 19:00N 68°25' E 015°60'1 2.8
2018-Feb-15 18:30N 68°24' E 016°01'713.4
2018-Feb-15 18:00N 68°17' E 016°03'4 7.8
2018-Feb-15 17:30N 68°13' E 016°04'3 5.4
2018-Feb-15 17:00N 68°16' E 016°04'713.4
2018-Feb-15 16:30N 68°23' E 016°01'3 5.0
2018-Feb-15 15:59N 68°25' E 015°60'0 0.0
2018-Feb-15 15:30N 68°25' E 015°60'510.4
2018-Feb-15 15:00N 68°20' E 016°01'713.5
2018-Feb-15 14:30N 68°13' E 016°04'0 0.9
2018-Feb-15 14:00N 68°14' E 016°05'612.6
2018-Feb-15 13:30N 68°20' E 016°01'510.8
2018-Feb-15 13:00N 68°25' E 015°60'0 0.0
2018-Feb-15 12:30N 68°25' E 015°60'0 0.0
2018-Feb-15 12:00N 68°25' E 015°60'2 3.9
2018-Feb-15 11:30N 68°23' E 016°01'714.0
2018-Feb-15 11:00N 68°16' E 016°03'3 5.6
2018-Feb-15 10:30N 68°14' E 016°05'712.8
2018-Feb-15 09:58N 68°20' E 016°00'511.0
2018-Feb-15 09:30N 68°25' E 015°60'2 4.0
2018-Feb-15 09:00N 68°23' E 016°01'713.7
2018-Feb-15 08:30N 68°17' E 016°03'3 6.0
2018-Feb-15 08:00N 68°14' E 016°04'612.2
2018-Feb-15 07:30N 68°19' E 016°00'611.3
2018-Feb-15 07:00N 68°25' E 015°60'2 3.8
2018-Feb-15 06:30N 68°23' E 016°01'713.5
2018-Feb-15 06:00N 68°17' E 016°03'3 6.4
2018-Feb-15 05:30N 68°14' E 016°05'612.7
2018-Feb-15 05:00N 68°20' E 016°01'511.1
2018-Feb-15 04:30N 68°25' E 015°60'0 0.0
2018-Feb-15 04:00N 68°25' E 015°60'0 0.0
2018-Feb-15 03:29N 68°25' E 015°60'0 0.0
2018-Feb-15 02:59N 68°25' E 015°60'0 0.0
2018-Feb-15 02:29N 68°25' E 015°60'0 0.0
2018-Feb-15 01:59N 68°25' E 015°60'0 0.0
2018-Feb-15 01:29N 68°25' E 015°60'0 0.0
2018-Feb-15 00:59N 68°25' E 015°60'0 0.0
2018-Feb-15 00:26N 68°25' E 015°60'0 0.0
2018-Feb-14 23:59N 68°25' E 015°60'2 4.4
2018-Feb-14 23:30N 68°23' E 016°01'713.4
2018-Feb-14 22:59N 68°16' E 016°04'3 5.7
2018-Feb-14 22:30N 68°14' E 016°04'612.4
2018-Feb-14 22:01N 68°20' E 016°01'6 8.8
2018-Feb-14 21:22N 68°25' E 015°60'3 7.1
2018-Feb-14 21:00N 68°23' E 016°01'713.4
2018-Feb-14 20:30N 68°16' E 016°04'2 5.0
2018-Feb-14 20:00N 68°14' E 016°05'612.8
2018-Feb-14 19:30N 68°20' E 016°00'510.8
2018-Feb-14 19:00N 68°25' E 015°60'1 2.4
2018-Feb-14 18:30N 68°24' E 016°02'713.9
2018-Feb-14 18:00N 68°17' E 016°03'4 7.9
2018-Feb-14 17:30N 68°13' E 016°04'3 6.2
2018-Feb-14 17:00N 68°17' E 016°03'713.6
2018-Feb-14 16:30N 68°23' E 016°01'2 4.0
2018-Feb-14 15:59N 68°25' E 015°60'0 0.1
2018-Feb-14 15:29N 68°25' E 015°60'611.7
2018-Feb-14 15:00N 68°20' E 016°01'612.7
2018-Feb-14 14:30N 68°13' E 016°04'1 1.3
2018-Feb-14 14:00N 68°14' E 016°05'713.7
2018-Feb-14 13:30N 68°21' E 016°01'5 9.2
2018-Feb-14 13:00N 68°25' E 015°60'0 0.0
2018-Feb-14 12:30N 68°25' E 015°60'0 0.0
2018-Feb-14 12:00N 68°25' E 015°60'2 4.5
2018-Feb-14 11:28N 68°23' E 016°01'713.8
2018-Feb-14 11:00N 68°16' E 016°03'3 5.8
2018-Feb-14 10:30N 68°14' E 016°04'612.2
2018-Feb-14 10:00N 68°20' E 016°00'611.2
2018-Feb-14 09:29N 68°25' E 015°60'2 5.0
2018-Feb-14 09:00N 68°23' E 016°01'713.5
2018-Feb-14 08:30N 68°16' E 016°04'3 5.3
2018-Feb-14 08:00N 68°14' E 016°04'612.4
2018-Feb-14 07:29N 68°20' E 016°01'511.3
2018-Feb-14 07:01N 68°25' E 015°60'2 4.5
2018-Feb-14 06:30N 68°23' E 016°01'713.7
2018-Feb-14 06:00N 68°16' E 016°04'2 3.2
2018-Feb-14 05:29N 68°15' E 016°05'612.3
2018-Feb-14 05:00N 68°20' E 016°00'5 9.9
2018-Feb-14 04:30N 68°25' E 015°60'0 0.0
2018-Feb-14 03:59N 68°25' E 015°60'0 0.0
2018-Feb-14 03:28N 68°25' E 015°60'0 0.0
2018-Feb-14 02:58N 68°25' E 015°60'0 0.0
2018-Feb-14 02:28N 68°25' E 015°60'0 0.0
2018-Feb-14 01:58N 68°25' E 015°60'0 0.0
2018-Feb-14 01:28N 68°25' E 015°60'0 0.0
2018-Feb-14 00:58N 68°25' E 015°60'0 0.0
2018-Feb-14 00:28N 68°25' E 015°60'0 0.0
2018-Feb-13 23:57N 68°25' E 015°60'3 6.6
2018-Feb-13 23:30N 68°22' E 016°01'713.5
2018-Feb-13 23:00N 68°16' E 016°05'2 3.4
2018-Feb-13 22:30N 68°14' E 016°05'613.0
2018-Feb-13 22:00N 68°20' E 015°60'510.0
2018-Feb-13 21:29N 68°25' E 015°60'3 5.5
2018-Feb-13 21:00N 68°23' E 016°01'713.7
2018-Feb-13 20:30N 68°16' E 016°04'2 3.8
2018-Feb-13 20:00N 68°14' E 016°05'712.9
2018-Feb-13 19:29N 68°20' E 015°60'5 9.6
2018-Feb-13 18:59N 68°25' E 015°60'1 2.6
2018-Feb-13 18:30N 68°24' E 016°01'713.7
2018-Feb-13 18:00N 68°17' E 016°02'4 8.0
2018-Feb-13 17:30N 68°13' E 016°04'3 6.1
2018-Feb-13 17:00N 68°17' E 016°03'713.2
2018-Feb-13 16:30N 68°23' E 016°01'2 4.4
2018-Feb-13 16:00N 68°25' E 015°60'0 0.0
2018-Feb-13 15:29N 68°25' E 015°60'510.4
2018-Feb-13 15:00N 68°20' E 016°01'713.5
2018-Feb-13 14:30N 68°13' E 016°04'0 0.6
2018-Feb-13 14:00N 68°14' E 016°05'612.8
2018-Feb-13 13:30N 68°20' E 016°00'510.8
2018-Feb-13 13:00N 68°25' E 015°60'0 0.0
2018-Feb-13 12:30N 68°25' E 015°60'0 0.0
2018-Feb-13 11:59N 68°25' E 015°60'2 4.1
2018-Feb-13 11:30N 68°23' E 016°01'714.1
2018-Feb-13 11:00N 68°16' E 016°04'3 5.7
2018-Feb-13 10:30N 68°14' E 016°05'612.6
2018-Feb-13 09:59N 68°20' E 016°00'510.6
2018-Feb-13 09:29N 68°25' E 015°60'2 4.7
2018-Feb-13 09:00N 68°23' E 016°01'714.2
2018-Feb-13 08:30N 68°16' E 016°04'2 3.9
2018-Feb-13 07:59N 68°14' E 016°05'612.5
2018-Feb-13 07:30N 68°20' E 016°01'510.3
2018-Feb-13 06:59N 68°25' E 015°60'1 2.4
2018-Feb-13 06:30N 68°24' E 016°02'714.5
2018-Feb-13 06:00N 68°17' E 016°03'4 7.0
2018-Feb-13 05:30N 68°14' E 016°05'613.0
2018-Feb-13 05:00N 68°20' E 016°01'5 9.8
2018-Feb-13 04:28N 68°25' E 015°60'0 0.0
2018-Feb-13 04:00N 68°25' E 015°60'0 0.0
2018-Feb-13 03:29N 68°25' E 015°60'0 0.0
2018-Feb-13 02:59N 68°25' E 015°60'0 0.0
2018-Feb-13 02:29N 68°25' E 015°60'0 0.0
2018-Feb-13 01:59N 68°25' E 015°60'0 0.0
2018-Feb-13 01:29N 68°25' E 015°60'0 0.0
2018-Feb-13 00:59N 68°25' E 015°60'0 0.0
2018-Feb-13 00:29N 68°25' E 015°60'0 0.0
2018-Feb-12 23:59N 68°25' E 015°60'0 0.5
2018-Feb-12 23:30N 68°25' E 016°00'714.5
2018-Feb-12 23:00N 68°18' E 016°02'4 8.9
2018-Feb-12 22:30N 68°14' E 016°05'612.3
2018-Feb-12 22:00N 68°20' E 016°01'611.4
2018-Feb-12 21:30N 68°25' E 015°60'2 4.3
2018-Feb-12 21:00N 68°23' E 016°01'714.1
2018-Feb-12 20:30N 68°16' E 016°04'3 5.2
2018-Feb-12 20:00N 68°14' E 016°04'612.5
2018-Feb-12 19:30N 68°20' E 016°00'610.0
2018-Feb-12 18:57N 68°25' E 015°60'1 2.9
2018-Feb-12 18:30N 68°24' E 016°01'713.3
2018-Feb-12 17:59N 68°17' E 016°03'4 7.9
2018-Feb-12 17:29N 68°13' E 016°04'3 6.0
2018-Feb-12 16:59N 68°16' E 016°03'713.3
2018-Feb-12 16:30N 68°23' E 016°01'2 4.6
2018-Feb-12 16:00N 68°25' E 015°60'0 0.0
2018-Feb-12 15:30N 68°25' E 015°60'611.2
2018-Feb-12 14:59N 68°19' E 016°01'612.8
2018-Feb-12 14:30N 68°13' E 016°04'1 1.0
2018-Feb-12 14:00N 68°14' E 016°05'612.8
2018-Feb-12 13:30N 68°20' E 016°01'510.3
2018-Feb-12 13:00N 68°25' E 015°60'0 0.0
2018-Feb-12 12:29N 68°25' E 015°60'0 0.0
2018-Feb-12 12:00N 68°25' E 015°60'3 5.5
2018-Feb-12 11:30N 68°23' E 016°01'713.6
2018-Feb-12 11:00N 68°16' E 016°04'2 4.2
2018-Feb-12 10:30N 68°14' E 016°05'612.6
2018-Feb-12 10:00N 68°20' E 016°00'510.5
2018-Feb-12 09:29N 68°25' E 015°60'2 4.6
2018-Feb-12 09:00N 68°23' E 016°01'713.6
2018-Feb-12 08:28N 68°16' E 016°04'2 4.4
2018-Feb-12 07:59N 68°14' E 016°05'612.8
2018-Feb-12 07:30N 68°20' E 016°00'510.5
2018-Feb-12 07:00N 68°25' E 015°60'2 4.8
2018-Feb-12 06:30N 68°23' E 016°01'713.6
2018-Feb-12 06:00N 68°16' E 016°04'2 4.7
2018-Feb-12 05:28N 68°14' E 016°05'612.9
2018-Feb-12 05:00N 68°20' E 016°00'510.9
2018-Feb-12 04:30N 68°25' E 015°60'0 0.0
2018-Feb-12 03:58N 68°25' E 015°60'0 0.0
2018-Feb-12 03:28N 68°25' E 015°60'0 0.0
2018-Feb-12 02:58N 68°25' E 015°60'0 0.0
2018-Feb-12 02:28N 68°25' E 015°60'0 0.0
2018-Feb-12 01:58N 68°25' E 015°60'0 0.0
2018-Feb-12 01:28N 68°25' E 015°60'0 0.0
2018-Feb-12 00:58N 68°25' E 015°60'0 0.0
2018-Feb-12 00:28N 68°25' E 015°60'0 0.0
2018-Feb-11 23:58N 68°25' E 015°60'1 3.0
2018-Feb-11 23:30N 68°24' E 016°01'714.0
2018-Feb-11 23:00N 68°17' E 016°03'4 7.0
2018-Feb-11 22:30N 68°14' E 016°05'612.8
2018-Feb-11 22:00N 68°20' E 016°00'510.3
2018-Feb-11 21:29N 68°25' E 015°60'3 7.2
2018-Feb-11 21:00N 68°22' E 016°01'714.1
2018-Feb-11 20:30N 68°15' E 016°05'2 3.1
2018-Feb-11 20:00N 68°14' E 016°04'612.3
2018-Feb-11 19:30N 68°20' E 016°01'611.5
2018-Feb-11 19:01N 68°25' E 015°60'1 1.6
2018-Feb-11 18:30N 68°25' E 016°01'714.2
2018-Feb-11 18:00N 68°18' E 016°02'4 8.5
2018-Feb-11 17:30N 68°13' E 016°04'3 6.5
2018-Feb-11 17:00N 68°17' E 016°03'713.2
2018-Feb-11 16:30N 68°23' E 016°01'2 3.5
2018-Feb-11 15:56N 68°25' E 015°60'0 0.1
2018-Feb-11 15:30N 68°25' E 015°60'611.5
2018-Feb-11 15:00N 68°20' E 016°01'612.1
2018-Feb-11 14:29N 68°13' E 016°04'1 1.3
2018-Feb-11 14:00N 68°14' E 016°05'713.1
2018-Feb-11 13:30N 68°20' E 015°59'510.4
2018-Feb-11 13:00N 68°25' E 015°60'0 0.0
2018-Feb-11 12:30N 68°25' E 015°60'0 0.0
2018-Feb-11 11:59N 68°25' E 015°60'2 4.6
2018-Feb-11 11:30N 68°23' E 016°01'714.0
2018-Feb-11 11:00N 68°16' E 016°04'2 4.6
2018-Feb-11 10:30N 68°14' E 016°05'712.8
2018-Feb-11 10:00N 68°20' E 016°00'5 8.1
2018-Feb-11 09:23N 68°25' E 015°60'2 6.4
2018-Feb-11 09:00N 68°23' E 016°02'713.8
2018-Feb-11 08:30N 68°16' E 016°04'2 4.7
2018-Feb-11 08:00N 68°14' E 016°05'612.8
2018-Feb-11 07:30N 68°20' E 015°60'510.7
2018-Feb-11 07:00N 68°25' E 015°60'0 0.0
2018-Feb-11 06:30N 68°25' E 015°60'0 0.0
2018-Feb-11 06:00N 68°25' E 015°60'0 0.0
2018-Feb-11 05:30N 68°25' E 015°60'0 0.0
2018-Feb-11 05:00N 68°25' E 015°60'0 0.0
2018-Feb-11 04:30N 68°25' E 015°60'0 0.0
2018-Feb-11 04:00N 68°25' E 015°60'0 0.0
2018-Feb-11 03:30N 68°25' E 015°60'0 0.0
2018-Feb-11 03:00N 68°25' E 015°60'0 0.0
2018-Feb-11 02:30N 68°25' E 015°60'0 0.0
2018-Feb-11 02:00N 68°25' E 015°60'0 0.0
2018-Feb-11 01:30N 68°25' E 015°60'0 0.0
2018-Feb-11 01:00N 68°25' E 015°60'0 0.0
2018-Feb-11 00:30N 68°25' E 015°60'0 0.0
2018-Feb-11 00:00N 68°25' E 015°60'0 0.0
2018-Feb-10 23:30N 68°25' E 015°60'0 0.0
2018-Feb-10 23:00N 68°25' E 015°60'0 0.0
2018-Feb-10 22:30N 68°25' E 015°60'0 0.0
2018-Feb-10 22:00N 68°25' E 015°60'0 0.0
2018-Feb-10 21:30N 68°25' E 015°60'2 4.8
2018-Feb-10 21:00N 68°23' E 016°01'713.7
2018-Feb-10 20:29N 68°16' E 016°05'2 4.5
2018-Feb-10 20:00N 68°14' E 016°04'612.4
2018-Feb-10 19:30N 68°20' E 016°00'611.2
2018-Feb-10 19:00N 68°25' E 015°60'1 2.0
2018-Feb-10 18:30N 68°24' E 016°02'714.2
2018-Feb-10 18:00N 68°17' E 016°02'4 7.9
2018-Feb-10 17:30N 68°13' E 016°04'3 6.0
2018-Feb-10 17:00N 68°16' E 016°03'713.5
2018-Feb-10 16:30N 68°23' E 016°01'2 4.0
2018-Feb-10 15:57N 68°25' E 015°60'0 0.0
2018-Feb-10 15:29N 68°25' E 015°60'611.7
2018-Feb-10 15:00N 68°19' E 016°01'612.2
2018-Feb-10 14:30N 68°13' E 016°04'0 0.7
2018-Feb-10 14:00N 68°14' E 016°05'612.8
2018-Feb-10 13:30N 68°20' E 016°01'510.1
2018-Feb-10 12:59N 68°25' E 015°60'0 0.0
2018-Feb-10 12:29N 68°25' E 015°60'2 4.4
2018-Feb-10 11:58N 68°23' E 016°01'614.0
2018-Feb-10 11:30N 68°17' E 016°03'3 6.0
2018-Feb-10 11:00N 68°14' E 016°04'612.1
2018-Feb-10 10:30N 68°19' E 016°01'611.3
2018-Feb-10 10:00N 68°25' E 015°60'2 3.2
2018-Feb-10 09:30N 68°24' E 016°01'714.8
2018-Feb-10 09:00N 68°16' E 016°04'3 6.0
2018-Feb-10 08:30N 68°13' E 016°04'1 1.1
2018-Feb-10 08:00N 68°14' E 016°05'612.9
2018-Feb-10 07:30N 68°20' E 016°00'510.2
2018-Feb-10 07:00N 68°25' E 015°60'0 0.0
2018-Feb-10 06:30N 68°25' E 015°60'0 0.0
2018-Feb-10 06:00N 68°25' E 015°60'0 0.0
2018-Feb-10 05:30N 68°25' E 015°60'0 0.0
2018-Feb-10 05:00N 68°25' E 015°60'0 0.0
2018-Feb-10 04:30N 68°25' E 015°60'0 0.0
2018-Feb-10 04:00N 68°25' E 015°60'  

Dump ship's entire track history